createdAt,value
2019-03-23T00:01:25.694Z,116.07
2019-03-23T00:03:57.957Z,121.07
2019-03-23T00:06:30.982Z,138.45
2019-03-23T00:09:05.916Z,137.00
2019-03-23T00:11:38.251Z,142.60
2019-03-23T00:14:10.367Z,142.98
2019-03-23T00:16:42.630Z,139.70
2019-03-23T00:19:15.817Z,138.88
2019-03-23T00:21:48.351Z,127.47
2019-03-23T00:24:20.659Z,129.55
2019-03-23T00:26:52.777Z,127.45
2019-03-23T00:29:25.144Z,141.60
2019-03-23T00:31:58.341Z,133.87
2019-03-23T00:34:30.625Z,122.37
2019-03-23T00:37:02.835Z,96.12
2019-03-23T00:39:38.167Z,96.28
2019-03-23T00:42:11.306Z,96.00
2019-03-23T00:44:43.715Z,113.00
2019-03-23T00:47:16.044Z,159.75
2019-03-23T00:49:48.430Z,118.13
2019-03-23T00:52:20.907Z,113.72
2019-03-23T00:54:53.264Z,85.42
2019-03-23T00:57:25.687Z,91.80
2019-03-23T00:59:57.881Z,82.47
2019-03-23T01:02:30.336Z,88.35
2019-03-23T01:05:02.729Z,120.33
2019-03-23T01:07:53.934Z,102.87
2019-03-23T01:10:26.342Z,99.72
2019-03-23T01:12:58.626Z,89.40
2019-03-23T01:15:30.961Z,87.78
2019-03-23T01:18:03.152Z,89.97
2019-03-23T01:20:35.378Z,81.57
2019-03-23T01:23:07.578Z,87.60
2019-03-23T01:25:39.918Z,92.88
2019-03-23T01:28:12.103Z,88.80
2019-03-23T01:30:44.552Z,82.72
2019-03-23T01:33:16.828Z,84.25
2019-03-23T01:35:48.981Z,91.10
2019-03-23T01:38:21.310Z,91.97
2019-03-23T01:40:53.511Z,86.45
2019-03-23T01:43:27.702Z,84.20
2019-03-23T01:45:59.492Z,88.47
2019-03-23T01:48:31.907Z,91.63
2019-03-23T01:51:04.428Z,81.85
2019-03-23T01:53:36.900Z,82.82
2019-03-23T01:56:09.010Z,96.75
2019-03-23T01:58:42.500Z,92.78
2019-03-23T02:01:14.690Z,90.65
2019-03-23T02:03:47.196Z,94.00
2019-03-23T02:06:19.494Z,98.80
2019-03-23T02:08:51.807Z,95.03
2019-03-23T02:11:24.341Z,91.95
2019-03-23T02:13:56.681Z,99.70
2019-03-23T02:16:29.016Z,82.88
2019-03-23T02:19:01.346Z,88.37
2019-03-23T02:21:33.885Z,87.20
2019-03-23T02:24:06.568Z,78.70
2019-03-23T02:26:38.800Z,77.82
2019-03-23T02:29:10.917Z,83.60
2019-03-23T02:31:43.122Z,82.82
2019-03-23T02:34:15.349Z,82.10
2019-03-23T02:36:47.774Z,77.45
2019-03-23T02:39:19.978Z,71.37
2019-03-23T02:41:52.449Z,79.42
2019-03-23T02:44:25.026Z,81.25
2019-03-23T02:46:57.372Z,79.47
2019-03-23T02:49:29.783Z,77.42
2019-03-23T02:52:02.190Z,71.90
2019-03-23T02:54:34.632Z,68.35
2019-03-23T02:57:07.020Z,65.35
2019-03-23T02:59:39.236Z,67.80
2019-03-23T03:02:11.540Z,63.98
2019-03-23T03:04:43.818Z,64.72
2019-03-23T03:07:16.288Z,61.50
2019-03-23T03:09:48.589Z,62.48
2019-03-23T03:12:20.896Z,69.20
2019-03-23T03:14:53.219Z,61.88
2019-03-23T03:17:25.537Z,59.97
2019-03-23T03:19:57.914Z,61.60
2019-03-23T03:22:31.040Z,63.90
2019-03-23T03:25:03.487Z,61.23
2019-03-23T03:27:36.693Z,63.38
2019-03-23T03:30:10.961Z,63.40
2019-03-23T03:32:43.169Z,58.43
2019-03-23T03:35:15.538Z,53.23
2019-03-23T03:37:56.615Z,56.90
2019-03-23T03:40:21.517Z,59.77
2019-03-23T03:42:53.888Z,161.00
2019-03-23T03:45:28.939Z,60.15
2019-03-23T03:48:02.467Z,60.35
2019-03-23T03:50:34.804Z,61.68
2019-03-23T03:53:06.961Z,70.12
2019-03-23T03:55:39.235Z,60.80
2019-03-23T03:58:11.514Z,65.00
2019-03-23T04:00:43.779Z,58.13
2019-03-23T04:03:15.924Z,57.43
2019-03-23T04:05:48.150Z,61.30
2019-03-23T04:08:20.249Z,62.67
2019-03-23T04:10:52.466Z,64.22
2019-03-23T04:13:25.066Z,65.30
2019-03-23T04:15:57.733Z,61.90
2019-03-23T04:18:30.094Z,61.00
2019-03-23T04:21:02.468Z,60.52
2019-03-23T04:23:34.685Z,95.10
2019-03-23T04:26:06.989Z,68.97
2019-03-23T04:28:39.310Z,67.10
2019-03-23T04:31:12.562Z,65.78
2019-03-23T04:33:44.663Z,64.07
2019-03-23T04:36:16.819Z,64.95
2019-03-23T04:38:48.962Z,68.33
2019-03-23T04:41:21.300Z,63.90
2019-03-23T04:43:53.625Z,60.23
2019-03-23T04:46:25.971Z,63.78
2019-03-23T04:48:59.259Z,64.90
2019-03-23T04:51:31.439Z,67.27
2019-03-23T04:54:03.667Z,69.03
2019-03-23T04:56:35.908Z,77.08
2019-03-23T04:59:08.017Z,77.40
2019-03-23T05:01:40.241Z,77.75
2019-03-23T05:04:12.278Z,78.27
2019-03-23T05:06:44.450Z,75.25
2019-03-23T05:09:16.610Z,75.60
2019-03-23T05:11:48.817Z,80.03
2019-03-23T05:14:21.344Z,84.25
2019-03-23T05:16:53.623Z,79.92
2019-03-23T05:19:26.664Z,81.67
2019-03-23T05:21:59.063Z,85.07
2019-03-23T05:24:31.313Z,81.63
2019-03-23T05:27:03.682Z,83.43
2019-03-23T05:29:36.352Z,81.15
2019-03-23T05:32:08.803Z,83.92
2019-03-23T05:34:40.950Z,84.20
2019-03-23T05:37:13.125Z,81.57
2019-03-23T05:39:45.360Z,81.08
2019-03-23T05:42:17.570Z,76.47
2019-03-23T05:44:49.689Z,73.65
2019-03-23T05:47:22.288Z,76.77
2019-03-23T05:49:54.488Z,74.80
2019-03-23T05:52:26.712Z,80.95
2019-03-23T05:54:58.934Z,79.43
2019-03-23T05:57:31.243Z,78.62
2019-03-23T06:00:03.789Z,76.50
2019-03-23T06:02:36.285Z,76.02
2019-03-23T06:05:09.035Z,72.87
2019-03-23T06:07:41.256Z,72.63
2019-03-23T06:10:13.438Z,72.15
2019-03-23T06:12:45.993Z,73.63
2019-03-23T06:15:18.579Z,74.20
2019-03-23T06:17:51.939Z,73.93
2019-03-23T06:20:24.054Z,71.53
2019-03-23T06:22:56.222Z,71.23
2019-03-23T06:25:28.505Z,71.97
2019-03-23T06:28:00.614Z,73.43
2019-03-23T06:30:32.840Z,71.28
2019-03-23T06:33:05.145Z,71.83
2019-03-23T06:35:37.439Z,72.37
2019-03-23T06:38:09.759Z,71.30
2019-03-23T06:40:54.627Z,71.95
2019-03-23T06:43:27.081Z,70.73
2019-03-23T06:45:59.317Z,71.67
2019-03-23T06:48:31.768Z,69.72
2019-03-23T06:51:03.982Z,67.62
2019-03-23T06:53:36.104Z,67.60
2019-03-23T06:56:08.482Z,63.53
2019-03-23T06:58:40.771Z,67.95
2019-03-23T07:01:12.902Z,66.85
2019-03-23T07:03:45.374Z,69.35
2019-03-23T07:06:17.805Z,70.22
2019-03-23T07:08:50.229Z,72.80
2019-03-23T07:11:22.501Z,73.13
2019-03-23T07:13:54.762Z,73.20
2019-03-23T07:16:27.562Z,71.90
2019-03-23T07:18:59.905Z,73.42
2019-03-23T07:21:32.176Z,72.78
2019-03-23T07:24:04.388Z,78.67
2019-03-23T07:26:36.502Z,77.60
2019-03-23T07:29:08.763Z,77.08
2019-03-23T07:31:41.100Z,72.97
2019-03-23T07:34:13.409Z,72.82
2019-03-23T07:36:45.531Z,70.80
2019-03-23T07:39:26.775Z,71.47
2019-03-23T07:41:51.250Z,73.10
2019-03-23T07:44:23.669Z,73.20
2019-03-23T07:46:56.048Z,71.60
2019-03-23T07:49:28.354Z,76.12
2019-03-23T07:52:00.622Z,71.17
2019-03-23T07:54:33.014Z,71.00
2019-03-23T07:57:05.472Z,68.25
2019-03-23T07:59:37.573Z,66.47
2019-03-23T08:02:09.880Z,65.28
2019-03-23T08:04:42.148Z,72.00
2019-03-23T08:07:14.233Z,70.75
2019-03-23T08:09:46.847Z,67.83
2019-03-23T08:12:19.357Z,64.60
2019-03-23T08:14:51.585Z,67.95
2019-03-23T08:17:24.168Z,61.37
2019-03-23T08:19:56.590Z,58.70
2019-03-23T08:22:28.793Z,58.38
2019-03-23T08:25:01.138Z,56.15
2019-03-23T08:27:33.186Z,55.60
2019-03-23T08:30:06.347Z,57.13
2019-03-23T08:32:38.509Z,56.77
2019-03-23T08:35:10.607Z,56.98
2019-03-23T08:37:43.940Z,67.42
2019-03-23T08:40:16.247Z,67.97
2019-03-23T08:42:48.709Z,69.90
2019-03-23T08:45:21.013Z,76.42
2019-03-23T08:47:53.204Z,70.47
2019-03-23T08:50:25.847Z,70.13
2019-03-23T08:52:58.148Z,66.72
2019-03-23T08:55:30.330Z,66.82
2019-03-23T08:58:02.536Z,78.25
2019-03-23T09:00:34.951Z,57.13
2019-03-23T09:03:07.187Z,53.30
2019-03-23T09:05:39.467Z,77.00
2019-03-23T09:08:12.005Z,67.03
2019-03-23T09:10:44.895Z,67.20
2019-03-23T09:13:17.770Z,59.60
2019-03-23T09:15:50.217Z,57.30
2019-03-23T09:18:22.787Z,50.37
2019-03-23T09:20:55.151Z,57.93
2019-03-23T09:23:27.302Z,65.50
2019-03-23T09:25:59.635Z,54.58
2019-03-23T09:28:32.002Z,57.75
2019-03-23T09:31:04.203Z,51.20
2019-03-23T09:33:36.471Z,50.80
2019-03-23T09:36:08.810Z,51.77
2019-03-23T09:38:41.087Z,50.80
2019-03-23T09:41:13.545Z,51.00
2019-03-23T09:43:45.660Z,55.83
2019-03-23T09:46:17.941Z,57.00
2019-03-23T09:48:50.248Z,55.50
2019-03-23T09:51:23.249Z,56.40
2019-03-23T09:53:55.586Z,57.73
2019-03-23T09:56:27.664Z,57.15
2019-03-23T09:59:00.137Z,58.78
2019-03-23T10:01:32.398Z,59.03
2019-03-23T10:04:04.487Z,57.83
2019-03-23T10:06:36.666Z,58.52
2019-03-23T10:09:09.100Z,70.62
2019-03-23T10:11:41.307Z,59.80
2019-03-23T10:14:13.873Z,58.83
2019-03-23T10:16:46.174Z,69.27
2019-03-23T10:19:19.595Z,66.42
2019-03-23T10:21:51.819Z,62.95
2019-03-23T10:24:24.122Z,56.92
2019-03-23T10:26:56.461Z,58.85
2019-03-23T10:29:28.607Z,57.37
2019-03-23T10:32:01.000Z,63.60
2019-03-23T10:34:33.240Z,62.95
2019-03-23T10:37:05.638Z,60.98
2019-03-23T10:39:37.799Z,62.17
2019-03-23T10:42:10.079Z,60.63
2019-03-23T10:44:42.398Z,60.00
2019-03-23T10:47:14.589Z,62.93
2019-03-23T10:49:46.943Z,62.85
2019-03-23T10:52:20.052Z,69.95
2019-03-23T10:54:52.385Z,76.75
2019-03-23T10:57:24.640Z,79.70
2019-03-23T10:59:56.779Z,73.33
2019-03-23T11:02:29.150Z,83.47
2019-03-23T11:05:01.528Z,85.12
2019-03-23T11:07:33.824Z,85.37
2019-03-23T11:10:08.423Z,77.25
2019-03-23T11:12:40.760Z,109.37
2019-03-23T11:15:13.041Z,104.30
2019-03-23T11:17:45.240Z,97.88
2019-03-23T11:20:19.380Z,91.92
2019-03-23T11:22:51.601Z,109.67
2019-03-23T11:25:23.872Z,113.92
2019-03-23T11:27:56.058Z,111.35
2019-03-23T11:30:28.234Z,102.78
2019-03-23T11:33:00.541Z,104.67
2019-03-23T11:35:32.787Z,106.03
2019-03-23T11:38:05.036Z,101.72
2019-03-23T11:40:37.446Z,142.28
2019-03-23T11:43:09.618Z,123.78
2019-03-23T11:45:41.766Z,131.93
2019-03-23T11:48:15.070Z,114.83
2019-03-23T11:50:47.191Z,120.70
2019-03-23T11:53:19.759Z,109.12
2019-03-23T11:55:52.185Z,112.60
2019-03-23T11:58:24.606Z,115.37
2019-03-23T12:00:56.884Z,113.52
2019-03-23T12:03:29.241Z,97.97
2019-03-23T12:06:01.552Z,121.30
2019-03-23T12:08:33.923Z,102.72
2019-03-23T12:11:06.084Z,99.90
2019-03-23T12:13:38.443Z,118.93
2019-03-23T12:16:10.898Z,143.97
2019-03-23T12:18:43.199Z,165.77
2019-03-23T12:21:17.591Z,123.53
2019-03-23T12:23:51.110Z,121.40
2019-03-23T12:26:23.230Z,106.87
2019-03-23T12:28:56.558Z,120.77
2019-03-23T12:31:28.923Z,115.32
2019-03-23T12:34:01.305Z,126.10
2019-03-23T12:36:33.561Z,133.35
2019-03-23T12:39:06.816Z,140.65
2019-03-23T12:41:38.925Z,123.72
2019-03-23T12:44:11.247Z,103.83
2019-03-23T12:46:48.311Z,107.00
2019-03-23T12:49:16.961Z,103.27
2019-03-23T12:51:50.116Z,99.32
2019-03-23T12:54:22.475Z,88.85
2019-03-23T12:56:54.638Z,85.00
2019-03-23T12:59:26.713Z,105.75
2019-03-23T13:01:58.789Z,94.57
2019-03-23T13:04:31.184Z,93.25
2019-03-23T13:07:03.603Z,98.20
2019-03-23T13:09:35.980Z,100.78
2019-03-23T13:12:08.191Z,105.25
2019-03-23T13:14:40.549Z,123.33
2019-03-23T13:17:12.642Z,116.70
2019-03-23T13:19:45.005Z,113.00
2019-03-23T13:22:19.641Z,121.28
2019-03-23T13:24:52.095Z,108.90
2019-03-23T13:27:24.251Z,107.50
2019-03-23T13:29:56.664Z,110.95
2019-03-23T13:32:28.743Z,127.53
2019-03-23T13:35:01.067Z,105.07
2019-03-23T13:37:33.652Z,102.22
2019-03-23T13:40:07.743Z,103.05
2019-03-23T13:42:39.866Z,106.65
2019-03-23T13:45:12.394Z,115.12
2019-03-23T13:47:44.630Z,110.70
2019-03-23T13:50:19.430Z,96.20
2019-03-23T13:52:52.674Z,102.27
2019-03-23T13:55:27.492Z,108.50
2019-03-23T13:58:02.221Z,102.35
2019-03-23T14:00:34.306Z,105.15
2019-03-23T14:03:07.027Z,129.90
2019-03-23T14:05:39.192Z,117.63
2019-03-23T14:08:11.522Z,113.42
2019-03-23T14:10:43.891Z,103.35
2019-03-23T14:13:17.129Z,114.55
2019-03-23T14:15:49.529Z,120.67
2019-03-23T14:18:21.614Z,107.55
2019-03-23T14:20:54.078Z,114.50
2019-03-23T14:23:26.458Z,112.37
2019-03-23T14:25:58.752Z,111.77
2019-03-23T14:28:31.366Z,115.72
2019-03-23T14:31:04.551Z,113.25
2019-03-23T14:33:36.749Z,111.17
2019-03-23T14:36:08.900Z,115.40
2019-03-23T14:38:41.187Z,113.97
2019-03-23T14:41:13.390Z,111.30
2019-03-23T14:43:45.928Z,109.22
2019-03-23T14:46:18.445Z,107.92
2019-03-23T14:48:50.788Z,109.57
2019-03-23T14:51:22.914Z,117.37
2019-03-23T14:53:56.089Z,100.20
2019-03-23T14:56:31.811Z,100.10
2019-03-23T14:59:01.946Z,105.47
2019-03-23T15:01:34.391Z,102.10
2019-03-23T15:04:06.774Z,97.20
2019-03-23T15:06:39.462Z,96.97
2019-03-23T15:09:11.841Z,94.10
2019-03-23T15:11:44.266Z,102.62
2019-03-23T15:14:16.643Z,99.95
2019-03-23T15:16:48.822Z,96.00
2019-03-23T15:19:21.097Z,95.28
2019-03-23T15:21:53.807Z,99.17
2019-03-23T15:24:26.289Z,105.75
2019-03-23T15:26:59.550Z,99.70
2019-03-23T15:29:31.975Z,94.67
2019-03-23T15:32:04.224Z,98.87
2019-03-23T15:34:36.478Z,96.67
2019-03-23T15:37:08.745Z,96.92
2019-03-23T15:39:41.066Z,99.10
2019-03-23T15:42:13.351Z,95.62
2019-03-23T15:44:45.534Z,95.53
2019-03-23T15:47:18.136Z,90.28
2019-03-23T15:49:50.417Z,97.08
2019-03-23T15:52:22.540Z,86.90
2019-03-23T15:54:54.726Z,93.47
2019-03-23T15:57:27.412Z,91.87
2019-03-23T15:59:59.665Z,99.25
2019-03-23T16:02:31.805Z,91.05
2019-03-23T16:05:04.273Z,102.62
2019-03-23T16:07:36.996Z,110.97
2019-03-23T16:10:09.563Z,108.45
2019-03-23T16:12:41.948Z,112.15
2019-03-23T16:15:14.937Z,107.10
2019-03-23T16:17:47.458Z,95.87
2019-03-23T16:20:19.853Z,120.07
2019-03-23T16:22:52.306Z,114.70
2019-03-23T16:25:24.945Z,123.75
2019-03-23T16:27:57.778Z,102.38
2019-03-23T16:30:31.748Z,103.40
2019-03-23T16:33:03.994Z,111.40
2019-03-23T16:35:37.084Z,105.55
2019-03-23T16:38:10.573Z,112.92
2019-03-23T16:40:43.268Z,100.40
2019-03-23T16:43:15.633Z,91.32
2019-03-23T16:45:48.043Z,101.82
2019-03-23T16:48:20.380Z,100.67
2019-03-23T16:50:52.627Z,86.80
2019-03-23T16:53:25.033Z,88.15
2019-03-23T16:55:57.182Z,86.17
2019-03-23T16:58:29.541Z,83.47
2019-03-23T17:01:01.833Z,83.10
2019-03-23T17:03:34.341Z,72.90
2019-03-23T17:06:06.782Z,72.60
2019-03-23T17:08:39.294Z,74.82
2019-03-23T17:11:11.489Z,73.67
2019-03-23T17:13:43.891Z,72.08
2019-03-23T17:16:16.276Z,84.70
2019-03-23T17:18:48.641Z,74.32
2019-03-23T17:21:21.110Z,66.35
2019-03-23T17:23:53.422Z,65.28
2019-03-23T17:26:25.910Z,64.82
2019-03-23T17:28:58.205Z,63.93
2019-03-23T17:31:30.403Z,64.80
2019-03-23T17:34:02.728Z,63.35
2019-03-23T17:36:34.785Z,61.13
2019-03-23T17:39:08.636Z,56.80
2019-03-23T17:41:41.060Z,61.07
2019-03-23T17:44:13.426Z,56.92
2019-03-23T17:46:45.720Z,56.25
2019-03-23T17:49:19.087Z,58.75
2019-03-23T17:51:51.343Z,56.55
2019-03-23T17:54:23.709Z,56.70
2019-03-23T17:56:56.114Z,58.15
2019-03-23T17:59:29.972Z,54.65
2019-03-23T18:02:02.355Z,57.38
2019-03-23T18:04:36.339Z,51.95
2019-03-23T18:07:08.631Z,60.12
2019-03-23T18:09:40.929Z,53.73
2019-03-23T18:12:13.198Z,53.78
2019-03-23T18:14:45.400Z,59.75
2019-03-23T18:17:17.698Z,60.73
2019-03-23T18:19:50.006Z,52.73
2019-03-23T18:22:22.269Z,57.40
2019-03-23T18:24:54.726Z,55.05
2019-03-23T18:27:27.158Z,58.87
2019-03-23T18:29:59.902Z,57.45
2019-03-23T18:32:32.126Z,56.45
2019-03-23T18:35:04.487Z,53.58
2019-03-23T18:37:36.701Z,57.67
2019-03-23T18:40:09.214Z,52.70
2019-03-23T18:42:41.406Z,55.67
2019-03-23T18:45:13.692Z,54.77
2019-03-23T18:47:46.028Z,55.92
2019-03-23T18:50:18.203Z,50.98
2019-03-23T18:52:50.523Z,57.60
2019-03-23T18:55:22.709Z,53.40
2019-03-23T18:57:55.080Z,53.35
2019-03-23T19:00:29.829Z,54.18
2019-03-23T19:03:02.467Z,52.05
2019-03-23T19:05:34.826Z,54.27
2019-03-23T19:08:07.304Z,57.73
2019-03-23T19:10:39.680Z,86.80
2019-03-23T19:13:11.917Z,54.13
2019-03-23T19:15:44.281Z,55.25
2019-03-23T19:18:16.765Z,53.90
2019-03-23T19:20:49.146Z,54.40
2019-03-23T19:23:21.508Z,56.03
2019-03-23T19:25:53.783Z,67.92
2019-03-23T19:28:26.242Z,65.40
2019-03-23T19:30:58.617Z,57.60
2019-03-23T19:33:30.781Z,61.28
2019-03-23T19:36:03.058Z,57.90
2019-03-23T19:38:35.264Z,59.90
2019-03-23T19:41:07.432Z,56.13
2019-03-23T19:43:48.311Z,61.00
2019-03-23T19:46:13.192Z,56.40
2019-03-23T19:48:45.543Z,57.25
2019-03-23T19:51:17.725Z,57.90
2019-03-23T19:53:49.971Z,60.88
2019-03-23T19:56:22.391Z,56.65
2019-03-23T19:58:54.688Z,55.83
2019-03-23T20:01:27.154Z,55.85
2019-03-23T20:03:59.661Z,57.43
2019-03-23T20:06:31.923Z,55.90
2019-03-23T20:09:04.100Z,55.10
2019-03-23T20:11:36.428Z,59.18
2019-03-23T20:14:08.526Z,56.08
2019-03-23T20:16:41.091Z,56.63
2019-03-23T20:19:13.194Z,55.98
2019-03-23T20:21:45.447Z,55.08
2019-03-23T20:24:17.667Z,56.88
2019-03-23T20:26:50.009Z,57.33
2019-03-23T20:29:22.577Z,56.80
2019-03-23T20:31:54.967Z,57.10
2019-03-23T20:34:27.037Z,62.33
2019-03-23T20:36:59.315Z,61.55
2019-03-23T20:39:31.484Z,60.55
2019-03-23T20:42:03.654Z,58.05
2019-03-23T20:44:35.966Z,57.30
2019-03-23T20:47:08.257Z,56.30
2019-03-23T20:49:40.405Z,58.85
2019-03-23T20:52:12.884Z,62.60
2019-03-23T20:54:45.332Z,57.62
2019-03-23T20:57:23.777Z,58.10
2019-03-23T20:59:51.191Z,56.92
2019-03-23T21:02:23.626Z,55.78
2019-03-23T21:04:56.008Z,57.38
2019-03-23T21:07:28.354Z,55.95
2019-03-23T21:10:00.589Z,56.50
2019-03-23T21:12:32.784Z,57.38
2019-03-23T21:15:06.072Z,56.53
2019-03-23T21:17:50.474Z,56.35
2019-03-23T21:20:12.132Z,56.42
2019-03-23T21:22:44.582Z,58.50
2019-03-23T21:25:17.044Z,56.40
2019-03-23T21:27:49.579Z,56.45
2019-03-23T21:30:22.861Z,57.00
2019-03-23T21:32:55.288Z,58.17
2019-03-23T21:35:28.564Z,55.80
2019-03-23T21:38:00.833Z,56.87
2019-03-23T21:40:34.969Z,57.90
2019-03-23T21:43:06.593Z,56.15
2019-03-23T21:45:38.749Z,57.30
2019-03-23T21:48:10.995Z,55.83
2019-03-23T21:50:47.376Z,55.47
2019-03-23T21:53:17.845Z,56.63
2019-03-23T21:55:50.123Z,57.40
2019-03-23T21:58:22.210Z,56.65
2019-03-23T22:00:54.454Z,60.28
2019-03-23T22:03:27.815Z,61.98
2019-03-23T22:06:00.063Z,59.80
2019-03-23T22:08:32.268Z,62.43
2019-03-23T22:11:04.407Z,59.75
2019-03-23T22:13:36.690Z,60.12
2019-03-23T22:16:08.997Z,60.03
2019-03-23T22:18:41.327Z,57.10
2019-03-23T22:21:13.787Z,55.92
2019-03-23T22:23:46.253Z,57.67
2019-03-23T22:26:18.700Z,60.93
2019-03-23T22:28:50.902Z,56.83
2019-03-23T22:31:23.503Z,63.52
2019-03-23T22:33:55.903Z,57.70
2019-03-23T22:36:28.172Z,54.67
2019-03-23T22:39:00.522Z,55.48
2019-03-23T22:41:34.809Z,56.18
2019-03-23T22:44:07.216Z,55.88
2019-03-23T22:46:40.401Z,56.68
2019-03-23T22:49:12.747Z,57.08
2019-03-23T22:51:45.152Z,57.05
2019-03-23T22:54:17.465Z,56.70
2019-03-23T22:56:49.860Z,56.90
2019-03-23T22:59:22.342Z,60.03
2019-03-23T23:01:54.686Z,58.17
2019-03-23T23:04:27.081Z,64.45
2019-03-23T23:06:59.445Z,55.80
2019-03-23T23:09:31.859Z,57.17
2019-03-23T23:12:03.955Z,59.17
2019-03-23T23:14:36.161Z,59.10
2019-03-23T23:17:08.490Z,58.28
2019-03-23T23:19:40.667Z,57.17
2019-03-23T23:22:13.101Z,56.98
2019-03-23T23:24:45.250Z,55.80
2019-03-23T23:27:17.762Z,56.13
2019-03-23T23:29:50.053Z,57.03
2019-03-23T23:32:22.385Z,56.90
2019-03-23T23:34:54.794Z,55.60
2019-03-23T23:37:26.863Z,58.68
2019-03-23T23:39:59.178Z,59.55
2019-03-23T23:42:31.393Z,57.15
2019-03-23T23:45:03.595Z,56.58
2019-03-23T23:47:35.769Z,59.33
2019-03-23T23:50:09.354Z,57.53
2019-03-23T23:52:42.080Z,58.37
2019-03-23T23:55:15.703Z,61.05
2019-03-23T23:57:47.935Z,56.83
